sensor_id;sensor_type;location;lat;lon;timestamp;P1;durP1;ratioP1;P2;durP2;ratioP2
2728;SDS011;1372;47.956;7.830;2023-03-24T00:01:36;1.37;;;1.20;;
2728;SDS011;1372;47.956;7.830;2023-03-24T00:04:08;1.30;;;1.20;;
2728;SDS011;1372;47.956;7.830;2023-03-24T00:06:42;1.00;;;1.00;;
2728;SDS011;1372;47.956;7.830;2023-03-24T00:09:17;1.70;;;1.60;;
2728;SDS011;1372;47.956;7.830;2023-03-24T00:11:49;1.20;;;1.10;;
2728;SDS011;1372;47.956;7.830;2023-03-24T00:14:23;1.40;;;1.30;;
2728;SDS011;1372;47.956;7.830;2023-03-24T00:17:00;1.10;;;1.10;;
2728;SDS011;1372;47.956;7.830;2023-03-24T00:19:31;1.50;;;1.40;;
2728;SDS011;1372;47.956;7.830;2023-03-24T00:22:05;1.43;;;1.10;;
2728;SDS011;1372;47.956;7.830;2023-03-24T00:24:42;1.20;;;1.10;;
2728;SDS011;1372;47.956;7.830;2023-03-24T00:27:17;1.07;;;0.97;;
2728;SDS011;1372;47.956;7.830;2023-03-24T00:29:51;1.97;;;1.40;;
2728;SDS011;1372;47.956;7.830;2023-03-24T00:32:26;1.47;;;0.93;;
2728;SDS011;1372;47.956;7.830;2023-03-24T00:34:59;1.30;;;1.17;;
2728;SDS011;1372;47.956;7.830;2023-03-24T00:37:31;1.50;;;1.17;;
2728;SDS011;1372;47.956;7.830;2023-03-24T00:40:05;1.10;;;1.10;;
2728;SDS011;1372;47.956;7.830;2023-03-24T00:42:41;1.30;;;1.10;;
2728;SDS011;1372;47.956;7.830;2023-03-24T00:45:17;1.30;;;1.20;;
2728;SDS011;1372;47.956;7.830;2023-03-24T00:47:52;1.07;;;0.97;;
2728;SDS011;1372;47.956;7.830;2023-03-24T00:50:25;1.80;;;1.30;;
2728;SDS011;1372;47.956;7.830;2023-03-24T00:53:00;1.07;;;1.00;;
2728;SDS011;1372;47.956;7.830;2023-03-24T00:55:33;2.60;;;1.30;;
2728;SDS011;1372;47.956;7.830;2023-03-24T00:58:06;1.40;;;1.30;;
2728;SDS011;1372;47.956;7.830;2023-03-24T01:00:47;1.30;;;1.20;;
2728;SDS011;1372;47.956;7.830;2023-03-24T01:03:21;1.83;;;1.43;;
2728;SDS011;1372;47.956;7.830;2023-03-24T01:05:54;1.40;;;1.30;;
2728;SDS011;1372;47.956;7.830;2023-03-24T01:08:34;1.50;;;1.20;;
2728;SDS011;1372;47.956;7.830;2023-03-24T01:11:06;1.30;;;1.17;;
2728;SDS011;1372;47.956;7.830;2023-03-24T01:13:39;1.40;;;1.07;;
2728;SDS011;1372;47.956;7.830;2023-03-24T01:16:14;1.30;;;1.20;;
2728;SDS011;1372;47.956;7.830;2023-03-24T01:18:47;0.80;;;0.80;;
2728;SDS011;1372;47.956;7.830;2023-03-24T01:21:19;1.30;;;1.20;;
2728;SDS011;1372;47.956;7.830;2023-03-24T01:23:52;1.30;;;1.20;;
2728;SDS011;1372;47.956;7.830;2023-03-24T01:26:25;0.97;;;0.97;;
2728;SDS011;1372;47.956;7.830;2023-03-24T01:28:59;2.70;;;1.27;;
2728;SDS011;1372;47.956;7.830;2023-03-24T01:31:36;1.27;;;1.17;;
2728;SDS011;1372;47.956;7.830;2023-03-24T01:34:08;1.27;;;1.17;;
2728;SDS011;1372;47.956;7.830;2023-03-24T01:36:40;1.77;;;1.20;;
2728;SDS011;1372;47.956;7.830;2023-03-24T01:39:12;1.10;;;1.00;;
2728;SDS011;1372;47.956;7.830;2023-03-24T01:41:45;1.03;;;1.00;;
2728;SDS011;1372;47.956;7.830;2023-03-24T01:44:24;1.60;;;1.13;;
2728;SDS011;1372;47.956;7.830;2023-03-24T01:47:00;1.30;;;1.20;;
2728;SDS011;1372;47.956;7.830;2023-03-24T01:49:37;1.80;;;1.10;;
2728;SDS011;1372;47.956;7.830;2023-03-24T01:52:17;1.00;;;0.90;;
2728;SDS011;1372;47.956;7.830;2023-03-24T01:54:53;1.20;;;1.20;;
2728;SDS011;1372;47.956;7.830;2023-03-24T01:57:30;1.07;;;0.97;;
2728;SDS011;1372;47.956;7.830;2023-03-24T02:00:07;1.20;;;1.10;;
2728;SDS011;1372;47.956;7.830;2023-03-24T02:02:44;1.30;;;1.20;;
2728;SDS011;1372;47.956;7.830;2023-03-24T02:05:21;1.17;;;1.00;;
2728;SDS011;1372;47.956;7.830;2023-03-24T02:08:00;1.40;;;1.30;;
2728;SDS011;1372;47.956;7.830;2023-03-24T02:10:39;0.90;;;0.90;;
2728;SDS011;1372;47.956;7.830;2023-03-24T02:13:14;1.23;;;1.13;;
2728;SDS011;1372;47.956;7.830;2023-03-24T02:15:50;1.47;;;1.37;;
2728;SDS011;1372;47.956;7.830;2023-03-24T02:18:46;1.40;;;1.30;;
2728;SDS011;1372;47.956;7.830;2023-03-24T02:21:46;3.20;;;1.27;;
2728;SDS011;1372;47.956;7.830;2023-03-24T02:25:28;1.63;;;1.30;;
2728;SDS011;1372;47.956;7.830;2023-03-24T02:28:40;1.17;;;1.10;;
2728;SDS011;1372;47.956;7.830;2023-03-24T02:31:30;1.20;;;1.10;;
2728;SDS011;1372;47.956;7.830;2023-03-24T02:34:25;1.83;;;1.20;;
2728;SDS011;1372;47.956;7.830;2023-03-24T02:40:56;1.50;;;1.40;;
2728;SDS011;1372;47.956;7.830;2023-03-24T02:43:37;1.30;;;1.20;;
2728;SDS011;1372;47.956;7.830;2023-03-24T02:46:22;1.20;;;1.10;;
2728;SDS011;1372;47.956;7.830;2023-03-24T02:49:04;1.30;;;1.20;;
2728;SDS011;1372;47.956;7.830;2023-03-24T02:51:46;5.80;;;1.63;;
2728;SDS011;1372;47.956;7.830;2023-03-24T02:54:27;0.90;;;0.90;;
2728;SDS011;1372;47.956;7.830;2023-03-24T02:57:07;1.17;;;1.10;;
2728;SDS011;1372;47.956;7.830;2023-03-24T02:59:47;1.30;;;1.20;;
2728;SDS011;1372;47.956;7.830;2023-03-24T03:02:22;1.00;;;1.00;;
2728;SDS011;1372;47.956;7.830;2023-03-24T03:04:59;1.27;;;0.90;;
2728;SDS011;1372;47.956;7.830;2023-03-24T03:07:36;0.93;;;0.90;;
2728;SDS011;1372;47.956;7.830;2023-03-24T03:10:13;1.10;;;1.10;;
2728;SDS011;1372;47.956;7.830;2023-03-24T03:12:52;0.70;;;0.70;;
2728;SDS011;1372;47.956;7.830;2023-03-24T03:15:28;1.40;;;1.10;;
2728;SDS011;1372;47.956;7.830;2023-03-24T03:18:08;1.73;;;1.17;;
2728;SDS011;1372;47.956;7.830;2023-03-24T03:20:46;1.10;;;1.00;;
2728;SDS011;1372;47.956;7.830;2023-03-24T03:23:25;1.10;;;1.00;;
2728;SDS011;1372;47.956;7.830;2023-03-24T03:26:04;1.20;;;0.90;;
2728;SDS011;1372;47.956;7.830;2023-03-24T03:28:42;0.70;;;0.70;;
2728;SDS011;1372;47.956;7.830;2023-03-24T03:31:26;1.27;;;1.10;;
2728;SDS011;1372;47.956;7.830;2023-03-24T03:34:06;1.03;;;1.03;;
2728;SDS011;1372;47.956;7.830;2023-03-24T03:36:46;1.33;;;1.10;;
2728;SDS011;1372;47.956;7.830;2023-03-24T03:39:23;1.23;;;1.13;;
2728;SDS011;1372;47.956;7.830;2023-03-24T03:42:02;1.37;;;1.10;;
2728;SDS011;1372;47.956;7.830;2023-03-24T03:44:37;1.63;;;1.30;;
2728;SDS011;1372;47.956;7.830;2023-03-24T03:47:09;1.37;;;1.20;;
2728;SDS011;1372;47.956;7.830;2023-03-24T03:49:42;1.10;;;1.00;;
2728;SDS011;1372;47.956;7.830;2023-03-24T03:52:14;1.50;;;1.40;;
2728;SDS011;1372;47.956;7.830;2023-03-24T03:54:47;1.30;;;1.20;;
2728;SDS011;1372;47.956;7.830;2023-03-24T03:57:20;1.27;;;1.13;;
2728;SDS011;1372;47.956;7.830;2023-03-24T03:59:54;1.73;;;1.63;;
2728;SDS011;1372;47.956;7.830;2023-03-24T04:02:28;1.67;;;1.57;;
2728;SDS011;1372;47.956;7.830;2023-03-24T04:05:18;2.00;;;1.80;;
2728;SDS011;1372;47.956;7.830;2023-03-24T04:08:04;2.23;;;2.03;;
2728;SDS011;1372;47.956;7.830;2023-03-24T04:10:54;2.60;;;2.30;;
2728;SDS011;1372;47.956;7.830;2023-03-24T04:14:10;2.43;;;2.00;;
2728;SDS011;1372;47.956;7.830;2023-03-24T04:16:57;2.40;;;2.23;;
2728;SDS011;1372;47.956;7.830;2023-03-24T04:19:43;3.50;;;2.67;;
2728;SDS011;1372;47.956;7.830;2023-03-24T04:22:35;2.40;;;2.20;;
2728;SDS011;1372;47.956;7.830;2023-03-24T04:25:27;3.13;;;2.60;;
2728;SDS011;1372;47.956;7.830;2023-03-24T04:28:05;3.20;;;2.97;;
2728;SDS011;1372;47.956;7.830;2023-03-24T04:30:49;3.40;;;3.10;;
2728;SDS011;1372;47.956;7.830;2023-03-24T04:33:33;3.53;;;3.23;;
2728;SDS011;1372;47.956;7.830;2023-03-24T04:36:18;3.70;;;3.33;;
2728;SDS011;1372;47.956;7.830;2023-03-24T04:38:54;3.03;;;2.80;;
2728;SDS011;1372;47.956;7.830;2023-03-24T04:41:29;3.50;;;3.20;;
2728;SDS011;1372;47.956;7.830;2023-03-24T04:44:01;3.57;;;3.27;;
2728;SDS011;1372;47.956;7.830;2023-03-24T04:46:33;3.70;;;3.40;;
2728;SDS011;1372;47.956;7.830;2023-03-24T04:49:07;3.50;;;3.20;;
2728;SDS011;1372;47.956;7.830;2023-03-24T04:51:41;3.70;;;3.40;;
2728;SDS011;1372;47.956;7.830;2023-03-24T04:54:14;3.83;;;3.53;;
2728;SDS011;1372;47.956;7.830;2023-03-24T04:56:46;4.80;;;3.53;;
2728;SDS011;1372;47.956;7.830;2023-03-24T04:59:19;3.90;;;3.60;;
2728;SDS011;1372;47.956;7.830;2023-03-24T05:01:50;6.17;;;3.43;;
2728;SDS011;1372;47.956;7.830;2023-03-24T05:04:24;4.07;;;3.67;;
2728;SDS011;1372;47.956;7.830;2023-03-24T05:06:55;3.87;;;3.33;;
2728;SDS011;1372;47.956;7.830;2023-03-24T05:09:28;4.27;;;3.87;;
2728;SDS011;1372;47.956;7.830;2023-03-24T05:11:59;4.03;;;3.63;;
2728;SDS011;1372;47.956;7.830;2023-03-24T05:14:31;3.60;;;3.30;;
2728;SDS011;1372;47.956;7.830;2023-03-24T05:17:02;6.10;;;3.57;;
2728;SDS011;1372;47.956;7.830;2023-03-24T05:19:35;4.20;;;3.80;;
2728;SDS011;1372;47.956;7.830;2023-03-24T05:22:07;4.23;;;3.83;;
2728;SDS011;1372;47.956;7.830;2023-03-24T05:24:38;4.30;;;3.70;;
2728;SDS011;1372;47.956;7.830;2023-03-24T05:27:12;4.80;;;4.00;;
2728;SDS011;1372;47.956;7.830;2023-03-24T05:29:45;3.77;;;3.47;;
2728;SDS011;1372;47.956;7.830;2023-03-24T05:32:16;6.67;;;3.83;;
2728;SDS011;1372;47.956;7.830;2023-03-24T05:34:53;4.07;;;3.67;;
2728;SDS011;1372;47.956;7.830;2023-03-24T05:37:23;4.10;;;3.70;;
2728;SDS011;1372;47.956;7.830;2023-03-24T05:39:57;3.53;;;3.23;;
2728;SDS011;1372;47.956;7.830;2023-03-24T05:42:29;3.97;;;3.63;;
2728;SDS011;1372;47.956;7.830;2023-03-24T05:45:01;3.63;;;3.33;;
2728;SDS011;1372;47.956;7.830;2023-03-24T05:47:34;4.07;;;3.67;;
2728;SDS011;1372;47.956;7.830;2023-03-24T05:50:07;4.10;;;3.70;;
2728;SDS011;1372;47.956;7.830;2023-03-24T05:52:39;4.57;;;4.00;;
2728;SDS011;1372;47.956;7.830;2023-03-24T05:55:12;5.13;;;4.47;;
2728;SDS011;1372;47.956;7.830;2023-03-24T05:57:44;5.10;;;4.63;;
2728;SDS011;1372;47.956;7.830;2023-03-24T06:00:16;6.47;;;5.67;;
2728;SDS011;1372;47.956;7.830;2023-03-24T06:02:50;6.33;;;5.73;;
2728;SDS011;1372;47.956;7.830;2023-03-24T06:05:33;5.17;;;4.73;;
2728;SDS011;1372;47.956;7.830;2023-03-24T06:08:05;5.17;;;4.67;;
2728;SDS011;1372;47.956;7.830;2023-03-24T06:10:47;5.27;;;4.63;;
2728;SDS011;1372;47.956;7.830;2023-03-24T06:13:19;4.60;;;4.20;;
2728;SDS011;1372;47.956;7.830;2023-03-24T06:16:03;4.70;;;4.20;;
2728;SDS011;1372;47.956;7.830;2023-03-24T06:18:54;5.30;;;4.80;;
2728;SDS011;1372;47.956;7.830;2023-03-24T06:21:27;5.53;;;4.80;;
2728;SDS011;1372;47.956;7.830;2023-03-24T06:24:01;7.27;;;4.57;;
2728;SDS011;1372;47.956;7.830;2023-03-24T06:26:33;5.70;;;5.00;;
2728;SDS011;1372;47.956;7.830;2023-03-24T06:29:04;5.80;;;5.00;;
2728;SDS011;1372;47.956;7.830;2023-03-24T06:31:36;6.43;;;5.83;;
2728;SDS011;1372;47.956;7.830;2023-03-24T06:34:09;7.50;;;5.70;;
2728;SDS011;1372;47.956;7.830;2023-03-24T06:36:43;10.93;;;5.30;;
2728;SDS011;1372;47.956;7.830;2023-03-24T06:39:14;6.70;;;4.37;;
2728;SDS011;1372;47.956;7.830;2023-03-24T06:41:49;4.73;;;4.33;;
2728;SDS011;1372;47.956;7.830;2023-03-24T06:44:24;4.80;;;4.40;;
2728;SDS011;1372;47.956;7.830;2023-03-24T06:46:56;4.43;;;4.03;;
2728;SDS011;1372;47.956;7.830;2023-03-24T06:49:27;7.23;;;4.60;;
2728;SDS011;1372;47.956;7.830;2023-03-24T06:52:04;6.17;;;4.43;;
2728;SDS011;1372;47.956;7.830;2023-03-24T06:54:37;5.23;;;4.77;;
2728;SDS011;1372;47.956;7.830;2023-03-24T06:57:09;5.60;;;5.10;;
2728;SDS011;1372;47.956;7.830;2023-03-24T06:59:41;7.20;;;5.50;;
2728;SDS011;1372;47.956;7.830;2023-03-24T07:02:15;6.57;;;5.93;;
2728;SDS011;1372;47.956;7.830;2023-03-24T07:04:48;6.83;;;4.40;;
2728;SDS011;1372;47.956;7.830;2023-03-24T07:07:24;4.77;;;4.37;;
2728;SDS011;1372;47.956;7.830;2023-03-24T07:10:16;5.47;;;4.97;;
2728;SDS011;1372;47.956;7.830;2023-03-24T07:12:50;5.43;;;4.93;;
2728;SDS011;1372;47.956;7.830;2023-03-24T07:15:22;5.30;;;4.80;;
2728;SDS011;1372;47.956;7.830;2023-03-24T07:17:56;6.30;;;5.70;;
2728;SDS011;1372;47.956;7.830;2023-03-24T07:20:29;5.17;;;4.77;;
2728;SDS011;1372;47.956;7.830;2023-03-24T07:23:02;6.33;;;4.40;;
2728;SDS011;1372;47.956;7.830;2023-03-24T07:25:34;4.67;;;4.27;;
2728;SDS011;1372;47.956;7.830;2023-03-24T07:28:08;4.93;;;4.10;;
2728;SDS011;1372;47.956;7.830;2023-03-24T07:30:44;4.53;;;4.07;;
2728;SDS011;1372;47.956;7.830;2023-03-24T07:33:20;5.10;;;4.00;;
2728;SDS011;1372;47.956;7.830;2023-03-24T07:35:55;4.60;;;3.70;;
2728;SDS011;1372;47.956;7.830;2023-03-24T07:38:31;3.73;;;3.40;;
2728;SDS011;1372;47.956;7.830;2023-03-24T07:41:06;4.30;;;3.67;;
2728;SDS011;1372;47.956;7.830;2023-03-24T07:43:41;2.90;;;2.60;;
2728;SDS011;1372;47.956;7.830;2023-03-24T07:46:17;4.00;;;3.50;;
2728;SDS011;1372;47.956;7.830;2023-03-24T07:48:50;3.10;;;2.87;;
2728;SDS011;1372;47.956;7.830;2023-03-24T07:51:26;3.47;;;3.17;;
2728;SDS011;1372;47.956;7.830;2023-03-24T07:54:06;3.03;;;2.83;;
2728;SDS011;1372;47.956;7.830;2023-03-24T07:56:41;3.40;;;3.10;;
2728;SDS011;1372;47.956;7.830;2023-03-24T07:59:14;3.17;;;2.87;;
2728;SDS011;1372;47.956;7.830;2023-03-24T08:01:47;3.13;;;2.73;;
2728;SDS011;1372;47.956;7.830;2023-03-24T08:04:25;3.23;;;2.93;;
2728;SDS011;1372;47.956;7.830;2023-03-24T08:06:57;2.73;;;2.53;;
2728;SDS011;1372;47.956;7.830;2023-03-24T08:09:32;2.83;;;2.60;;
2728;SDS011;1372;47.956;7.830;2023-03-24T08:12:04;3.00;;;2.50;;
2728;SDS011;1372;47.956;7.830;2023-03-24T08:14:46;3.87;;;3.57;;
2728;SDS011;1372;47.956;7.830;2023-03-24T08:17:19;2.60;;;2.40;;
2728;SDS011;1372;47.956;7.830;2023-03-24T08:19:51;2.97;;;2.70;;
2728;SDS011;1372;47.956;7.830;2023-03-24T08:22:27;2.97;;;2.67;;
2728;SDS011;1372;47.956;7.830;2023-03-24T08:25:05;3.20;;;2.93;;
2728;SDS011;1372;47.956;7.830;2023-03-24T08:27:39;3.40;;;2.60;;
2728;SDS011;1372;47.956;7.830;2023-03-24T08:30:15;2.10;;;2.00;;
2728;SDS011;1372;47.956;7.830;2023-03-24T08:32:52;2.53;;;2.33;;
2728;SDS011;1372;47.956;7.830;2023-03-24T08:35:27;2.30;;;2.17;;
2728;SDS011;1372;47.956;7.830;2023-03-24T08:38:01;2.40;;;2.20;;
2728;SDS011;1372;47.956;7.830;2023-03-24T08:40:40;2.10;;;1.90;;
2728;SDS011;1372;47.956;7.830;2023-03-24T08:43:14;2.03;;;1.83;;
2728;SDS011;1372;47.956;7.830;2023-03-24T08:45:50;1.87;;;1.77;;
2728;SDS011;1372;47.956;7.830;2023-03-24T08:48:27;1.67;;;1.57;;
2728;SDS011;1372;47.956;7.830;2023-03-24T08:51:00;1.80;;;1.60;;
2728;SDS011;1372;47.956;7.830;2023-03-24T08:53:42;1.90;;;1.80;;
2728;SDS011;1372;47.956;7.830;2023-03-24T08:56:17;4.00;;;1.87;;
2728;SDS011;1372;47.956;7.830;2023-03-24T08:58:52;1.70;;;1.60;;
2728;SDS011;1372;47.956;7.830;2023-03-24T09:01:25;2.07;;;1.87;;
2728;SDS011;1372;47.956;7.830;2023-03-24T09:03:58;1.70;;;1.60;;
2728;SDS011;1372;47.956;7.830;2023-03-24T09:06:33;2.50;;;2.07;;
2728;SDS011;1372;47.956;7.830;2023-03-24T09:09:06;1.80;;;1.70;;
2728;SDS011;1372;47.956;7.830;2023-03-24T09:11:40;1.80;;;1.70;;
2728;SDS011;1372;47.956;7.830;2023-03-24T09:14:12;1.23;;;1.13;;
2728;SDS011;1372;47.956;7.830;2023-03-24T09:16:46;1.37;;;1.27;;
2728;SDS011;1372;47.956;7.830;2023-03-24T09:19:20;1.70;;;1.60;;
2728;SDS011;1372;47.956;7.830;2023-03-24T09:21:52;1.43;;;1.33;;
2728;SDS011;1372;47.956;7.830;2023-03-24T09:24:26;1.20;;;1.10;;
2728;SDS011;1372;47.956;7.830;2023-03-24T09:27:05;1.87;;;1.77;;
2728;SDS011;1372;47.956;7.830;2023-03-24T09:29:38;1.47;;;1.30;;
2728;SDS011;1372;47.956;7.830;2023-03-24T09:32:10;2.87;;;1.80;;
2728;SDS011;1372;47.956;7.830;2023-03-24T09:34:43;1.40;;;1.30;;
2728;SDS011;1372;47.956;7.830;2023-03-24T09:37:15;2.93;;;1.40;;
2728;SDS011;1372;47.956;7.830;2023-03-24T09:39:51;1.30;;;1.20;;
2728;SDS011;1372;47.956;7.830;2023-03-24T09:42:25;1.47;;;1.30;;
2728;SDS011;1372;47.956;7.830;2023-03-24T09:45:04;1.57;;;1.47;;
2728;SDS011;1372;47.956;7.830;2023-03-24T09:47:44;1.23;;;1.13;;
2728;SDS011;1372;47.956;7.830;2023-03-24T09:50:21;1.70;;;1.07;;
2728;SDS011;1372;47.956;7.830;2023-03-24T09:52:58;1.20;;;1.10;;
2728;SDS011;1372;47.956;7.830;2023-03-24T09:55:38;1.30;;;1.20;;
2728;SDS011;1372;47.956;7.830;2023-03-24T09:58:18;1.97;;;1.00;;
2728;SDS011;1372;47.956;7.830;2023-03-24T10:00:56;1.40;;;1.30;;
2728;SDS011;1372;47.956;7.830;2023-03-24T10:03:29;1.63;;;1.40;;
2728;SDS011;1372;47.956;7.830;2023-03-24T10:06:04;1.87;;;1.77;;
2728;SDS011;1372;47.956;7.830;2023-03-24T10:08:45;1.93;;;1.83;;
2728;SDS011;1372;47.956;7.830;2023-03-24T10:11:29;1.77;;;1.60;;
2728;SDS011;1372;47.956;7.830;2023-03-24T10:14:17;1.80;;;1.70;;
2728;SDS011;1372;47.956;7.830;2023-03-24T10:17:00;5.93;;;4.70;;
2728;SDS011;1372;47.956;7.830;2023-03-24T10:19:42;2.00;;;1.90;;
2728;SDS011;1372;47.956;7.830;2023-03-24T10:22:27;2.20;;;1.83;;
2728;SDS011;1372;47.956;7.830;2023-03-24T10:25:06;1.20;;;1.10;;
2728;SDS011;1372;47.956;7.830;2023-03-24T10:27:47;2.00;;;1.33;;
2728;SDS011;1372;47.956;7.830;2023-03-24T10:30:28;2.00;;;1.90;;
2728;SDS011;1372;47.956;7.830;2023-03-24T10:33:07;2.20;;;2.03;;
2728;SDS011;1372;47.956;7.830;2023-03-24T10:35:40;1.60;;;1.50;;
2728;SDS011;1372;47.956;7.830;2023-03-24T10:38:19;4.40;;;1.40;;
2728;SDS011;1372;47.956;7.830;2023-03-24T10:40:50;3.47;;;3.27;;
2728;SDS011;1372;47.956;7.830;2023-03-24T10:43:22;2.30;;;1.73;;
2728;SDS011;1372;47.956;7.830;2023-03-24T10:45:57;1.60;;;1.50;;
2728;SDS011;1372;47.956;7.830;2023-03-24T10:48:34;1.40;;;1.10;;
2728;SDS011;1372;47.956;7.830;2023-03-24T10:51:15;0.87;;;0.87;;
2728;SDS011;1372;47.956;7.830;2023-03-24T10:53:51;0.73;;;0.73;;
2728;SDS011;1372;47.956;7.830;2023-03-24T10:56:41;0.97;;;0.87;;
2728;SDS011;1372;47.956;7.830;2023-03-24T10:59:24;2.20;;;1.23;;
2728;SDS011;1372;47.956;7.830;2023-03-24T11:02:01;0.70;;;0.70;;
2728;SDS011;1372;47.956;7.830;2023-03-24T11:04:50;0.60;;;0.60;;
2728;SDS011;1372;47.956;7.830;2023-03-24T11:07:27;0.60;;;0.60;;
2728;SDS011;1372;47.956;7.830;2023-03-24T11:10:05;0.60;;;0.40;;
2728;SDS011;1372;47.956;7.830;2023-03-24T11:12:43;1.43;;;0.40;;
2728;SDS011;1372;47.956;7.830;2023-03-24T11:15:30;0.40;;;0.40;;
2728;SDS011;1372;47.956;7.830;2023-03-24T11:18:13;2.73;;;0.57;;
2728;SDS011;1372;47.956;7.830;2023-03-24T11:20:51;0.87;;;0.87;;
2728;SDS011;1372;47.956;7.830;2023-03-24T11:23:28;0.90;;;0.30;;
2728;SDS011;1372;47.956;7.830;2023-03-24T11:26:11;1.07;;;0.40;;
2728;SDS011;1372;47.956;7.830;2023-03-24T11:28:49;0.60;;;0.40;;
2728;SDS011;1372;47.956;7.830;2023-03-24T11:31:23;0.70;;;0.50;;
2728;SDS011;1372;47.956;7.830;2023-03-24T11:33:59;1.67;;;0.70;;
2728;SDS011;1372;47.956;7.830;2023-03-24T11:36:46;0.50;;;0.50;;
2728;SDS011;1372;47.956;7.830;2023-03-24T11:39:20;0.70;;;0.70;;
2728;SDS011;1372;47.956;7.830;2023-03-24T11:42:12;0.50;;;0.50;;
2728;SDS011;1372;47.956;7.830;2023-03-24T11:44:47;0.80;;;0.50;;
2728;SDS011;1372;47.956;7.830;2023-03-24T11:47:22;1.00;;;0.80;;
2728;SDS011;1372;47.956;7.830;2023-03-24T11:50:15;0.80;;;0.60;;
2728;SDS011;1372;47.956;7.830;2023-03-24T11:52:53;0.63;;;0.50;;
2728;SDS011;1372;47.956;7.830;2023-03-24T11:56:04;0.60;;;0.60;;
2728;SDS011;1372;47.956;7.830;2023-03-24T11:58:43;0.50;;;0.50;;
2728;SDS011;1372;47.956;7.830;2023-03-24T12:01:20;0.50;;;0.50;;
2728;SDS011;1372;47.956;7.830;2023-03-24T12:07:07;0.50;;;0.47;;
2728;SDS011;1372;47.956;7.830;2023-03-24T12:10:15;0.50;;;0.50;;
2728;SDS011;1372;47.956;7.830;2023-03-24T12:12:59;0.50;;;0.50;;
2728;SDS011;1372;47.956;7.830;2023-03-24T12:15:55;0.73;;;0.73;;
2728;SDS011;1372;47.956;7.830;2023-03-24T12:18:38;0.53;;;0.53;;
2728;SDS011;1372;47.956;7.830;2023-03-24T12:21:26;0.80;;;0.80;;
2728;SDS011;1372;47.956;7.830;2023-03-24T12:24:19;0.60;;;0.60;;
2728;SDS011;1372;47.956;7.830;2023-03-24T12:27:11;1.63;;;0.60;;
2728;SDS011;1372;47.956;7.830;2023-03-24T12:29:58;0.43;;;0.43;;
2728;SDS011;1372;47.956;7.830;2023-03-24T12:32:35;1.10;;;0.90;;
2728;SDS011;1372;47.956;7.830;2023-03-24T12:38:23;0.80;;;0.50;;
2728;SDS011;1372;47.956;7.830;2023-03-24T12:41:12;1.23;;;0.40;;
2728;SDS011;1372;47.956;7.830;2023-03-24T12:44:04;0.63;;;0.50;;
2728;SDS011;1372;47.956;7.830;2023-03-24T12:47:15;0.70;;;0.70;;
2728;SDS011;1372;47.956;7.830;2023-03-24T12:50:19;1.17;;;0.63;;
2728;SDS011;1372;47.956;7.830;2023-03-24T12:53:08;0.70;;;0.70;;
2728;SDS011;1372;47.956;7.830;2023-03-24T12:55:55;0.90;;;0.70;;
2728;SDS011;1372;47.956;7.830;2023-03-24T12:58:37;0.40;;;0.40;;
2728;SDS011;1372;47.956;7.830;2023-03-24T13:01:16;1.53;;;0.60;;
2728;SDS011;1372;47.956;7.830;2023-03-24T13:03:57;0.70;;;0.70;;
2728;SDS011;1372;47.956;7.830;2023-03-24T13:06:38;0.50;;;0.50;;
2728;SDS011;1372;47.956;7.830;2023-03-24T13:09:19;0.53;;;0.53;;
2728;SDS011;1372;47.956;7.830;2023-03-24T13:12:05;0.53;;;0.53;;
2728;SDS011;1372;47.956;7.830;2023-03-24T13:14:52;1.77;;;0.70;;
2728;SDS011;1372;47.956;7.830;2023-03-24T13:17:32;0.40;;;0.40;;
2728;SDS011;1372;47.956;7.830;2023-03-24T13:20:13;1.00;;;0.70;;
2728;SDS011;1372;47.956;7.830;2023-03-24T13:22:55;0.57;;;0.57;;
2728;SDS011;1372;47.956;7.830;2023-03-24T13:25:40;0.60;;;0.60;;
2728;SDS011;1372;47.956;7.830;2023-03-24T13:28:23;1.30;;;0.70;;
2728;SDS011;1372;47.956;7.830;2023-03-24T13:31:09;2.30;;;1.57;;
2728;SDS011;1372;47.956;7.830;2023-03-24T13:33:44;2.23;;;2.07;;
2728;SDS011;1372;47.956;7.830;2023-03-24T13:36:29;5.80;;;1.17;;
2728;SDS011;1372;47.956;7.830;2023-03-24T13:39:13;0.80;;;0.80;;
2728;SDS011;1372;47.956;7.830;2023-03-24T13:41:49;0.67;;;0.67;;
2728;SDS011;1372;47.956;7.830;2023-03-24T13:44:23;1.57;;;0.90;;
2728;SDS011;1372;47.956;7.830;2023-03-24T13:47:13;0.70;;;0.70;;
2728;SDS011;1372;47.956;7.830;2023-03-24T13:49:51;1.10;;;1.00;;
2728;SDS011;1372;47.956;7.830;2023-03-24T13:52:32;0.83;;;0.77;;
2728;SDS011;1372;47.956;7.830;2023-03-24T13:55:12;1.00;;;0.87;;
2728;SDS011;1372;47.956;7.830;2023-03-24T13:57:54;0.80;;;0.80;;
2728;SDS011;1372;47.956;7.830;2023-03-24T14:00:33;0.80;;;0.80;;
2728;SDS011;1372;47.956;7.830;2023-03-24T14:04:11;0.90;;;0.80;;
2728;SDS011;1372;47.956;7.830;2023-03-24T14:06:56;1.40;;;1.10;;
2728;SDS011;1372;47.956;7.830;2023-03-24T14:09:31;0.90;;;0.80;;
2728;SDS011;1372;47.956;7.830;2023-03-24T14:12:08;1.33;;;1.00;;
2728;SDS011;1372;47.956;7.830;2023-03-24T14:17:48;2.20;;;1.20;;
2728;SDS011;1372;47.956;7.830;2023-03-24T14:20:31;1.47;;;0.90;;
2728;SDS011;1372;47.956;7.830;2023-03-24T14:23:13;0.60;;;0.57;;
2728;SDS011;1372;47.956;7.830;2023-03-24T14:25:52;1.73;;;0.77;;
2728;SDS011;1372;47.956;7.830;2023-03-24T14:28:24;1.10;;;1.00;;
2728;SDS011;1372;47.956;7.830;2023-03-24T14:31:07;1.77;;;0.80;;
2728;SDS011;1372;47.956;7.830;2023-03-24T14:33:58;1.77;;;1.17;;
2728;SDS011;1372;47.956;7.830;2023-03-24T14:36:39;0.80;;;0.80;;
2728;SDS011;1372;47.956;7.830;2023-03-24T14:39:18;0.97;;;0.97;;
2728;SDS011;1372;47.956;7.830;2023-03-24T14:42:04;0.60;;;0.53;;
2728;SDS011;1372;47.956;7.830;2023-03-24T14:48:33;0.73;;;0.60;;
2728;SDS011;1372;47.956;7.830;2023-03-24T14:51:25;0.53;;;0.53;;
2728;SDS011;1372;47.956;7.830;2023-03-24T14:54:11;0.73;;;0.70;;
2728;SDS011;1372;47.956;7.830;2023-03-24T14:56:48;1.00;;;0.70;;
2728;SDS011;1372;47.956;7.830;2023-03-24T14:59:26;0.60;;;0.60;;
2728;SDS011;1372;47.956;7.830;2023-03-24T15:02:26;0.73;;;0.40;;
2728;SDS011;1372;47.956;7.830;2023-03-24T15:05:14;1.27;;;0.73;;
2728;SDS011;1372;47.956;7.830;2023-03-24T15:10:51;0.70;;;0.70;;
2728;SDS011;1372;47.956;7.830;2023-03-24T15:13:27;0.90;;;0.60;;
2728;SDS011;1372;47.956;7.830;2023-03-24T15:16:06;0.90;;;0.83;;
2728;SDS011;1372;47.956;7.830;2023-03-24T15:18:52;0.87;;;0.57;;
2728;SDS011;1372;47.956;7.830;2023-03-24T15:21:32;1.70;;;0.90;;
2728;SDS011;1372;47.956;7.830;2023-03-24T15:27:16;0.90;;;0.70;;
2728;SDS011;1372;47.956;7.830;2023-03-24T15:29:55;0.93;;;0.93;;
2728;SDS011;1372;47.956;7.830;2023-03-24T15:32:28;1.23;;;0.80;;
2728;SDS011;1372;47.956;7.830;2023-03-24T15:35:06;3.80;;;1.07;;
2728;SDS011;1372;47.956;7.830;2023-03-24T15:37:49;1.83;;;1.00;;
2728;SDS011;1372;47.956;7.830;2023-03-24T15:40:36;0.70;;;0.70;;
2728;SDS011;1372;47.956;7.830;2023-03-24T15:43:17;1.00;;;0.87;;
2728;SDS011;1372;47.956;7.830;2023-03-24T15:45:51;1.00;;;0.90;;
2728;SDS011;1372;47.956;7.830;2023-03-24T15:48:38;0.70;;;0.70;;
2728;SDS011;1372;47.956;7.830;2023-03-24T15:51:10;1.53;;;0.97;;
2728;SDS011;1372;47.956;7.830;2023-03-24T15:53:44;1.20;;;0.97;;
2728;SDS011;1372;47.956;7.830;2023-03-24T15:56:27;1.00;;;0.93;;
2728;SDS011;1372;47.956;7.830;2023-03-24T15:59:12;1.47;;;0.80;;
2728;SDS011;1372;47.956;7.830;2023-03-24T16:01:48;0.80;;;0.70;;
2728;SDS011;1372;47.956;7.830;2023-03-24T16:04:24;0.87;;;0.87;;
2728;SDS011;1372;47.956;7.830;2023-03-24T16:07:02;1.00;;;0.90;;
2728;SDS011;1372;47.956;7.830;2023-03-24T16:09:34;1.00;;;0.70;;
2728;SDS011;1372;47.956;7.830;2023-03-24T16:12:08;1.73;;;0.87;;
2728;SDS011;1372;47.956;7.830;2023-03-24T16:14:44;0.90;;;0.90;;
2728;SDS011;1372;47.956;7.830;2023-03-24T16:17:16;1.10;;;1.00;;
2728;SDS011;1372;47.956;7.830;2023-03-24T16:19:51;1.37;;;1.00;;
2728;SDS011;1372;47.956;7.830;2023-03-24T16:22:24;1.03;;;0.97;;
2728;SDS011;1372;47.956;7.830;2023-03-24T16:24:56;1.57;;;1.40;;
2728;SDS011;1372;47.956;7.830;2023-03-24T16:27:32;2.67;;;1.53;;
2728;SDS011;1372;47.956;7.830;2023-03-24T16:30:11;2.43;;;2.00;;
2728;SDS011;1372;47.956;7.830;2023-03-24T16:32:52;1.63;;;1.53;;
2728;SDS011;1372;47.956;7.830;2023-03-24T16:35:24;4.00;;;2.90;;
2728;SDS011;1372;47.956;7.830;2023-03-24T16:37:56;2.43;;;1.80;;
2728;SDS011;1372;47.956;7.830;2023-03-24T16:40:32;1.23;;;1.00;;
2728;SDS011;1372;47.956;7.830;2023-03-24T16:43:08;1.93;;;1.00;;
2728;SDS011;1372;47.956;7.830;2023-03-24T16:45:43;1.80;;;1.70;;
2728;SDS011;1372;47.956;7.830;2023-03-24T16:48:18;1.30;;;1.17;;